Time;durP1;ratioP1;P1;durP2;ratioP2;P2;SDS_P1;SDS_P2;PMS_P1;PMS_P2;Temp;Humidity;BMP_temperature;BMP_pressure;BME280_temperature;BME280_humidity;BME280_pressure;Samples;Min_cycle;Max_cycle;Signal;HPM_P1;HPM_P2
2022/01/20 00:01:59;;;;;;;24.30;13.25;;;;;;;;;;5096625;28;20020;-69
2022/01/20 00:04:34;;;;;;;23.83;10.82;;;;;;;;;;5096767;28;20024;-68
2022/01/20 00:25:56;;;;;;;34.30;17.20;;;;;;;;;;5096389;28;20460;-68
2022/01/20 00:28:37;;;;;;;41.47;20.08;;;;;;;;;;5096628;28;20020;-68
2022/01/20 00:31:27;;;;;;;34.45;16.83;;;;;;;;;;5095974;28;20026;-68
2022/01/20 00:34:16;;;;;;;28.85;12.65;;;;;;;;;;5094874;28;20024;-68
2022/01/20 00:39:27;;;;;;;19.33;9.52;;;;;;;;;;5096175;28;20022;-68
2022/01/20 00:41:54;;;;;;;21.38;9.80;;;;;;;;;;5096057;28;20047;-68
2022/01/20 00:44:21;;;;;;;17.83;8.70;;;;;;;;;;5095913;28;20020;-68
2022/01/20 00:46:47;;;;;;;17.88;9.77;;;;;;;;;;5095644;28;20016;-68
2022/01/20 00:49:13;;;;;;;16.02;7.72;;;;;;;;;;5096120;28;20465;-68
2022/01/20 00:51:40;;;;;;;18.15;8.82;;;;;;;;;;5095535;28;20091;-68
2022/01/20 00:54:06;;;;;;;16.10;8.15;;;;;;;;;;5094472;28;20427;-68
2022/01/20 00:56:32;;;;;;;16.48;8.30;;;;;;;;;;5095894;28;20024;-68
2022/01/20 00:58:58;;;;;;;20.10;8.80;;;;;;;;;;5095338;28;20020;-68
2022/01/20 01:01:25;;;;;;;17.75;9.02;;;;;;;;;;5095701;28;20027;-68
2022/01/20 01:03:52;;;;;;;17.17;8.77;;;;;;;;;;5095628;28;20020;-68
2022/01/20 01:08:50;;;;;;;22.63;11.07;;;;;;;;;;5095680;28;20072;-68
2022/01/20 01:11:17;;;;;;;20.10;10.80;;;;;;;;;;5093854;28;20153;-68
2022/01/20 01:13:44;;;;;;;29.83;11.00;;;;;;;;;;5095310;28;20523;-68
2022/01/20 01:16:12;;;;;;;32.13;11.95;;;;;;;;;;5095847;28;20165;-68
2022/01/20 01:21:30;;;;;;;22.40;9.38;;;;;;;;;;5095696;28;20055;-68
2022/01/20 01:23:56;;;;;;;21.48;10.15;;;;;;;;;;5095635;28;20523;-68
2022/01/20 01:26:25;;;;;;;18.52;8.98;;;;;;;;;;5094858;28;20020;-68
2022/01/20 01:28:52;;;;;;;21.90;9.38;;;;;;;;;;5095223;28;20040;-68
2022/01/20 01:31:32;;;;;;;15.30;8.05;;;;;;;;;;5095152;28;20024;-68
2022/01/20 01:34:03;;;;;;;15.75;7.35;;;;;;;;;;5094752;28;20032;-68
2022/01/20 01:36:33;;;;;;;20.60;7.95;;;;;;;;;;5095122;28;20024;-68
2022/01/20 01:39:00;;;;;;;17.00;7.70;;;;;;;;;;5093790;28;20024;-68
2022/01/20 01:41:33;;;;;;;15.45;7.72;;;;;;;;;;5094620;28;20051;-68
2022/01/20 01:44:04;;;;;;;17.65;7.18;;;;;;;;;;5094970;28;20024;-68
2022/01/20 01:46:30;;;;;;;16.33;7.63;;;;;;;;;;5094512;28;20023;-68
2022/01/20 01:48:57;;;;;;;21.05;8.27;;;;;;;;;;5095018;28;20028;-67
2022/01/20 01:51:23;;;;;;;15.88;8.23;;;;;;;;;;5095028;28;20024;-68
2022/01/20 01:53:49;;;;;;;16.60;8.00;;;;;;;;;;5094280;28;20086;-68
2022/01/20 01:56:16;;;;;;;21.33;7.45;;;;;;;;;;5094654;28;20099;-68
2022/01/20 01:58:42;;;;;;;19.30;8.43;;;;;;;;;;5093932;28;20032;-68
2022/01/20 02:01:08;;;;;;;23.50;10.30;;;;;;;;;;5094352;28;20020;-68
2022/01/20 02:03:43;;;;;;;15.93;9.13;;;;;;;;;;5094786;28;20366;-68
2022/01/20 02:08:43;;;;;;;13.30;7.50;;;;;;;;;;5094040;28;20056;-68
2022/01/20 02:19:26;;;;;;;28.77;13.40;;;;;;;;;;5094394;28;20078;-68
2022/01/20 02:21:56;;;;;;;35.95;13.13;;;;;;;;;;5093790;28;20068;-68
2022/01/20 02:24:23;;;;;;;33.83;13.23;;;;;;;;;;5092946;28;20054;-68
2022/01/20 02:26:50;;;;;;;23.27;12.00;;;;;;;;;;5094387;28;20031;-68
2022/01/20 02:29:16;;;;;;;25.23;10.43;;;;;;;;;;5093702;28;20027;-68
2022/01/20 02:31:42;;;;;;;24.88;8.23;;;;;;;;;;5094066;28;20095;-68
2022/01/20 02:34:13;;;;;;;21.60;8.57;;;;;;;;;;5094055;28;20120;-68
2022/01/20 02:36:42;;;;;;;22.70;9.75;;;;;;;;;;5093759;28;20024;-67
2022/01/20 02:39:30;;;;;;;21.42;9.88;;;;;;;;;;5094202;28;20392;-67
2022/01/20 02:47:16;;;;;;;20.23;8.05;;;;;;;;;;5093845;28;20027;-68
2022/01/20 02:49:42;;;;;;;17.13;7.43;;;;;;;;;;5093381;28;20049;-68
2022/01/20 02:52:09;;;;;;;18.02;9.55;;;;;;;;;;5092393;28;20063;-68
2022/01/20 02:54:35;;;;;;;18.73;9.27;;;;;;;;;;5093812;28;20032;-68
2022/01/20 02:57:02;;;;;;;19.90;7.78;;;;;;;;;;5092091;28;20020;-68
2022/01/20 02:59:28;;;;;;;15.45;6.68;;;;;;;;;;5093629;28;20036;-68
2022/01/20 03:01:54;;;;;;;19.13;8.77;;;;;;;;;;5092281;28;20431;-68
2022/01/20 03:04:24;;;;;;;24.85;8.98;;;;;;;;;;5093203;28;20023;-68
2022/01/20 03:06:51;;;;;;;19.60;8.88;;;;;;;;;;5092281;28;20013;-68
2022/01/20 03:09:17;;;;;;;23.10;9.05;;;;;;;;;;5093368;28;20529;-68
2022/01/20 03:11:43;;;;;;;21.42;8.07;;;;;;;;;;5093207;28;20024;-68
2022/01/20 03:14:09;;;;;;;18.55;7.90;;;;;;;;;;5093134;28;20487;-68
2022/01/20 03:16:35;;;;;;;15.82;8.40;;;;;;;;;;5092212;28;20024;-68
2022/01/20 03:19:02;;;;;;;17.27;8.32;;;;;;;;;;5093127;28;20028;-69
2022/01/20 03:21:28;;;;;;;17.20;8.70;;;;;;;;;;5093643;28;20357;-68
2022/01/20 03:23:54;;;;;;;22.20;8.27;;;;;;;;;;5093455;28;20104;-68
2022/01/20 03:26:20;;;;;;;18.08;7.88;;;;;;;;;;5092901;28;20057;-67
2022/01/20 03:28:46;;;;;;;13.93;7.30;;;;;;;;;;5093380;28;20024;-68
2022/01/20 03:31:13;;;;;;;17.50;7.65;;;;;;;;;;5092290;28;20472;-68
2022/01/20 03:33:39;;;;;;;20.15;8.82;;;;;;;;;;5091512;28;20528;-68
2022/01/20 03:36:05;;;;;;;16.50;8.27;;;;;;;;;;5093256;28;20027;-69
2022/01/20 03:38:32;;;;;;;17.73;6.82;;;;;;;;;;5093206;28;20032;-68
2022/01/20 03:40:58;;;;;;;18.42;7.95;;;;;;;;;;5092831;28;20093;-68
2022/01/20 03:43:24;;;;;;;17.55;8.07;;;;;;;;;;5091941;28;20027;-67
2022/01/20 03:45:55;;;;;;;17.10;6.45;;;;;;;;;;5092758;28;20369;-68
2022/01/20 03:48:23;;;;;;;17.88;7.60;;;;;;;;;;5093702;28;20016;-68
2022/01/20 03:51:04;;;;;;;14.30;7.53;;;;;;;;;;5093090;28;20085;-68
2022/01/20 03:53:32;;;;;;;12.25;6.40;;;;;;;;;;5092698;28;20052;-68
2022/01/20 03:55:59;;;;;;;21.15;9.43;;;;;;;;;;5093124;28;20028;-68
2022/01/20 03:58:26;;;;;;;14.10;7.90;;;;;;;;;;5093227;28;20070;-68
2022/01/20 04:00:52;;;;;;;18.95;9.43;;;;;;;;;;5092568;28;20048;-68
2022/01/20 04:03:19;;;;;;;18.83;7.57;;;;;;;;;;5091806;28;20031;-68
2022/01/20 04:08:20;;;;;;;19.17;9.07;;;;;;;;;;5092926;28;20463;-68
2022/01/20 04:10:47;;;;;;;25.38;11.15;;;;;;;;;;5093069;28;20065;-68
2022/01/20 04:13:14;;;;;;;20.77;10.10;;;;;;;;;;5092622;28;20553;-67
2022/01/20 04:15:41;;;;;;;21.13;9.38;;;;;;;;;;5092481;28;20062;-68
2022/01/20 04:18:08;;;;;;;17.92;9.35;;;;;;;;;;5092917;28;20052;-67
2022/01/20 04:20:34;;;;;;;23.63;9.25;;;;;;;;;;5093338;28;20074;-68
2022/01/20 04:23:01;;;;;;;23.88;10.52;;;;;;;;;;5096061;28;20089;-68
2022/01/20 04:25:27;;;;;;;24.88;9.20;;;;;;;;;;5096452;28;20448;-68
2022/01/20 04:27:53;;;;;;;23.67;11.75;;;;;;;;;;5095149;28;20365;-68
2022/01/20 04:30:19;;;;;;;23.80;11.95;;;;;;;;;;5096033;28;20115;-68
2022/01/20 04:32:46;;;;;;;28.67;13.73;;;;;;;;;;5096367;28;20028;-68
2022/01/20 04:35:12;;;;;;;36.45;16.73;;;;;;;;;;5094539;28;20039;-68
2022/01/20 04:37:38;;;;;;;41.28;16.08;;;;;;;;;;5094951;28;20024;-68
2022/01/20 04:40:05;;;;;;;45.38;20.52;;;;;;;;;;5094931;28;20106;-67
2022/01/20 04:42:35;;;;;;;39.47;19.70;;;;;;;;;;5095964;28;20044;-68
2022/01/20 04:45:06;;;;;;;52.83;20.63;;;;;;;;;;5096087;28;20052;-67
2022/01/20 04:47:49;;;;;;;50.17;22.30;;;;;;;;;;5096150;28;20022;-67
2022/01/20 04:58:29;;;;;;;24.08;11.45;;;;;;;;;;5095501;28;20081;-68
2022/01/20 05:00:56;;;;;;;20.48;10.35;;;;;;;;;;5096067;28;20046;-68
2022/01/20 05:03:24;;;;;;;19.73;9.93;;;;;;;;;;5095335;28;20460;-68
2022/01/20 05:05:50;;;;;;;23.42;8.35;;;;;;;;;;5095734;28;20107;-68
2022/01/20 05:08:22;;;;;;;19.90;10.18;;;;;;;;;;5095743;28;20024;-68
2022/01/20 05:10:48;;;;;;;20.67;10.57;;;;;;;;;;5093996;28;20050;-69
2022/01/20 05:13:32;;;;;;;23.25;10.70;;;;;;;;;;5095603;28;20548;-70
2022/01/20 05:15:58;;;;;;;23.42;11.00;;;;;;;;;;5095807;28;20036;-69
2022/01/20 05:18:24;;;;;;;26.30;12.80;;;;;;;;;;5095085;28;20031;-69
2022/01/20 05:20:51;;;;;;;26.58;12.85;;;;;;;;;;5095515;28;20456;-69
2022/01/20 05:23:18;;;;;;;21.98;11.25;;;;;;;;;;5095406;28;20035;-67
2022/01/20 05:25:44;;;;;;;22.10;10.05;;;;;;;;;;5094861;28;20447;-68
2022/01/20 05:28:10;;;;;;;25.88;12.70;;;;;;;;;;5095584;28;20415;-69
2022/01/20 05:30:38;;;;;;;29.40;13.10;;;;;;;;;;5095562;28;20476;-68
2022/01/20 05:33:05;;;;;;;30.77;15.07;;;;;;;;;;5094783;28;20035;-67
2022/01/20 05:35:31;;;;;;;33.30;17.10;;;;;;;;;;5095150;28;20476;-68
2022/01/20 05:37:58;;;;;;;39.45;17.55;;;;;;;;;;5095244;28;20016;-67
2022/01/20 05:40:24;;;;;;;32.35;15.82;;;;;;;;;;5094600;28;20035;-67
2022/01/20 05:42:51;;;;;;;36.17;16.50;;;;;;;;;;5093659;28;20074;-67
2022/01/20 05:45:17;;;;;;;34.40;16.13;;;;;;;;;;5094924;28;20464;-67
2022/01/20 05:47:47;;;;;;;42.97;16.90;;;;;;;;;;5094506;28;20020;-67
2022/01/20 05:50:17;;;;;;;46.33;19.40;;;;;;;;;;5093534;28;20073;-68
2022/01/20 05:52:43;;;;;;;70.95;25.25;;;;;;;;;;5094450;28;20097;-68
2022/01/20 05:55:14;;;;;;;123.13;38.97;;;;;;;;;;5094613;28;20036;-68
2022/01/20 05:57:43;;;;;;;109.60;40.28;;;;;;;;;;5095029;28;20024;-68
2022/01/20 06:00:12;;;;;;;110.38;44.45;;;;;;;;;;5092898;28;20051;-68
2022/01/20 06:05:23;;;;;;;70.10;31.05;;;;;;;;;;5094796;28;20376;-68
2022/01/20 06:07:50;;;;;;;50.10;26.40;;;;;;;;;;5094082;28;20024;-68
2022/01/20 06:10:16;;;;;;;67.22;30.02;;;;;;;;;;5094483;28;20020;-68
2022/01/20 06:12:42;;;;;;;79.03;34.88;;;;;;;;;;5094229;28;20138;-67
2022/01/20 06:15:10;;;;;;;63.28;29.15;;;;;;;;;;5092693;28;20043;-68
2022/01/20 06:17:37;;;;;;;51.92;25.05;;;;;;;;;;5094478;28;20031;-68
2022/01/20 06:20:05;;;;;;;43.17;25.05;;;;;;;;;;5094210;28;20016;-68
2022/01/20 06:22:32;;;;;;;51.67;26.98;;;;;;;;;;5093881;28;20054;-68
2022/01/20 06:24:58;;;;;;;137.90;57.63;;;;;;;;;;5094164;28;20091;-68
2022/01/20 06:27:24;;;;;;;66.20;33.67;;;;;;;;;;5092887;28;20460;-68
2022/01/20 06:29:50;;;;;;;49.08;25.40;;;;;;;;;;5093700;28;20024;-68
2022/01/20 06:32:17;;;;;;;34.00;18.10;;;;;;;;;;5094114;28;20415;-69
2022/01/20 06:34:43;;;;;;;35.28;17.15;;;;;;;;;;5092266;28;20039;-67
2022/01/20 06:37:09;;;;;;;31.27;15.13;;;;;;;;;;5092680;28;20024;-67
2022/01/20 06:39:35;;;;;;;31.48;14.13;;;;;;;;;;5094217;28;20059;-69
2022/01/20 06:42:01;;;;;;;37.42;16.85;;;;;;;;;;5093553;28;20020;-67
2022/01/20 06:44:28;;;;;;;43.05;21.33;;;;;;;;;;5093562;28;20026;-67
2022/01/20 06:46:54;;;;;;;51.47;25.15;;;;;;;;;;5093822;28;20447;-68
2022/01/20 06:49:20;;;;;;;47.50;22.17;;;;;;;;;;5093345;28;20471;-68
2022/01/20 06:51:46;;;;;;;48.90;23.85;;;;;;;;;;5093029;28;20110;-70
2022/01/20 06:54:13;;;;;;;66.15;32.95;;;;;;;;;;5093756;28;20032;-70
2022/01/20 06:56:41;;;;;;;57.95;26.80;;;;;;;;;;5093366;28;20039;-69
2022/01/20 06:59:09;;;;;;;52.83;26.70;;;;;;;;;;5093879;28;20061;-69
2022/01/20 07:01:35;;;;;;;58.30;29.02;;;;;;;;;;5092359;28;20479;-69
2022/01/20 07:04:01;;;;;;;68.38;35.95;;;;;;;;;;5093008;28;20582;-69
2022/01/20 07:06:28;;;;;;;76.05;37.72;;;;;;;;;;5093563;28;20107;-69
2022/01/20 07:08:54;;;;;;;82.78;37.42;;;;;;;;;;5093575;28;20032;-69
2022/01/20 07:11:20;;;;;;;58.65;30.30;;;;;;;;;;5093105;28;20110;-67
2022/01/20 07:13:46;;;;;;;59.22;29.58;;;;;;;;;;5093258;28;20098;-68
2022/01/20 07:16:13;;;;;;;60.97;32.35;;;;;;;;;;5093464;28;20027;-68
2022/01/20 07:18:39;;;;;;;53.78;29.85;;;;;;;;;;5091759;28;20388;-68
2022/01/20 07:21:05;;;;;;;51.15;27.58;;;;;;;;;;5093396;28;20032;-67
2022/01/20 07:23:31;;;;;;;71.07;32.85;;;;;;;;;;5091601;28;20503;-66
2022/01/20 07:25:57;;;;;;;59.55;30.17;;;;;;;;;;5089038;28;20035;-68
2022/01/20 07:28:24;;;;;;;60.70;27.00;;;;;;;;;;5091500;28;20437;-68
2022/01/20 07:30:50;;;;;;;50.15;26.92;;;;;;;;;;5091619;28;20024;-67
2022/01/20 07:33:19;;;;;;;50.47;25.88;;;;;;;;;;5093251;28;20028;-68
2022/01/20 07:35:45;;;;;;;51.78;29.58;;;;;;;;;;5092750;28;20476;-68
2022/01/20 07:38:12;;;;;;;50.97;26.80;;;;;;;;;;5092702;28;20443;-66
2022/01/20 07:40:38;;;;;;;52.88;29.23;;;;;;;;;;5093055;28;20495;-67
2022/01/20 07:43:04;;;;;;;50.10;25.73;;;;;;;;;;5093113;28;20035;-67
2022/01/20 07:45:31;;;;;;;47.78;32.85;;;;;;;;;;5092498;28;20055;-65
2022/01/20 07:47:57;;;;;;;47.40;23.05;;;;;;;;;;5093160;28;20027;-66
2022/01/20 07:50:23;;;;;;;44.35;25.65;;;;;;;;;;5093047;28;20028;-66
2022/01/20 07:52:49;;;;;;;48.92;25.77;;;;;;;;;;5092300;28;20029;-66
2022/01/20 07:55:16;;;;;;;51.20;28.65;;;;;;;;;;5092884;28;20488;-67
2022/01/20 07:57:42;;;;;;;47.97;26.23;;;;;;;;;;5096899;28;20464;-66
2022/01/20 08:00:08;;;;;;;54.33;25.77;;;;;;;;;;5096539;28;20055;-66
2022/01/20 08:02:35;;;;;;;52.42;27.55;;;;;;;;;;5096670;28;20519;-66
2022/01/20 08:05:01;;;;;;;58.00;26.77;;;;;;;;;;5096277;28;20028;-67
2022/01/20 08:07:27;;;;;;;54.83;29.05;;;;;;;;;;5096282;28;20024;-67
2022/01/20 08:09:57;;;;;;;62.95;31.45;;;;;;;;;;5096592;28;20062;-68
2022/01/20 08:12:27;;;;;;;54.50;29.50;;;;;;;;;;5096409;28;20020;-66
2022/01/20 08:14:54;;;;;;;58.38;28.88;;;;;;;;;;5095928;28;20077;-66
2022/01/20 08:17:20;;;;;;;52.00;25.85;;;;;;;;;;5096490;28;20016;-67
2022/01/20 08:19:46;;;;;;;46.75;25.00;;;;;;;;;;5096523;28;20024;-68
2022/01/20 08:22:12;;;;;;;58.83;30.20;;;;;;;;;;5090981;28;20181;-66
2022/01/20 08:24:41;;;;;;;61.10;35.05;;;;;;;;;;5095029;28;20020;-67
2022/01/20 08:27:07;;;;;;;62.58;33.22;;;;;;;;;;5095468;28;20020;-67
2022/01/20 08:29:33;;;;;;;55.15;29.80;;;;;;;;;;5094727;28;20035;-67
2022/01/20 08:31:59;;;;;;;49.10;25.55;;;;;;;;;;5094751;28;20031;-67
2022/01/20 08:34:25;;;;;;;61.75;29.15;;;;;;;;;;5095107;28;20032;-67
2022/01/20 08:36:55;;;;;;;62.13;31.42;;;;;;;;;;5095374;28;20190;-67
2022/01/20 08:39:43;;;;;;;49.63;26.85;;;;;;;;;;5095814;28;20028;-67
2022/01/20 08:42:08;;;;;;;51.90;29.00;;;;;;;;;;5095013;28;20039;-67
2022/01/20 08:44:35;;;;;;;53.42;30.65;;;;;;;;;;5095580;28;20031;-67
2022/01/20 08:47:02;;;;;;;80.00;38.63;;;;;;;;;;5095670;28;20020;-68
2022/01/20 08:49:29;;;;;;;52.63;27.98;;;;;;;;;;5095460;28;20076;-68
2022/01/20 08:51:56;;;;;;;50.55;26.15;;;;;;;;;;5095714;28;20073;-68
2022/01/20 08:54:22;;;;;;;47.65;24.27;;;;;;;;;;5094204;28;20076;-68
2022/01/20 08:56:50;;;;;;;38.83;20.60;;;;;;;;;;5095028;28;20473;-67
2022/01/20 08:59:16;;;;;;;42.40;20.13;;;;;;;;;;5091855;28;20153;-67
2022/01/20 09:01:43;;;;;;;41.47;22.30;;;;;;;;;;5095082;28;20095;-67
2022/01/20 09:04:09;;;;;;;37.35;21.50;;;;;;;;;;5095038;28;20051;-66
2022/01/20 09:06:35;;;;;;;57.63;34.83;;;;;;;;;;5093395;28;20028;-67
2022/01/20 09:09:01;;;;;;;69.22;40.95;;;;;;;;;;5095177;28;20030;-68
2022/01/20 09:11:36;;;;;;;62.83;38.25;;;;;;;;;;5085903;28;20120;-68
2022/01/20 09:16:47;;;;;;;58.28;34.75;;;;;;;;;;5093533;28;20032;-69
2022/01/20 09:19:14;;;;;;;63.80;35.40;;;;;;;;;;5095228;28;20055;-69
2022/01/20 09:21:40;;;;;;;53.10;30.50;;;;;;;;;;5091097;28;20024;-67
2022/01/20 09:24:07;;;;;;;47.05;30.17;;;;;;;;;;5085157;28;20067;-68
2022/01/20 09:26:34;;;;;;;43.45;26.35;;;;;;;;;;5094689;28;20138;-67
2022/01/20 09:29:00;;;;;;;44.65;27.10;;;;;;;;;;5094242;28;20024;-68
2022/01/20 09:31:27;;;;;;;69.93;36.00;;;;;;;;;;5093176;28;20027;-68
2022/01/20 09:33:54;;;;;;;55.47;34.30;;;;;;;;;;5094537;28;20060;-69
2022/01/20 09:36:21;;;;;;;50.00;31.00;;;;;;;;;;5093674;28;20021;-68
2022/01/20 09:38:48;;;;;;;57.80;28.42;;;;;;;;;;5092974;28;20024;-68
2022/01/20 09:41:14;;;;;;;50.28;26.55;;;;;;;;;;5093265;28;20016;-69
2022/01/20 09:43:40;;;;;;;36.28;22.58;;;;;;;;;;5083765;28;20059;-67
2022/01/20 09:46:06;;;;;;;33.38;19.10;;;;;;;;;;5077610;28;20016;-65
2022/01/20 09:48:32;;;;;;;35.53;20.02;;;;;;;;;;5071796;28;20025;-67
2022/01/20 09:51:00;;;;;;;35.20;20.27;;;;;;;;;;5073275;28;20040;-68
2022/01/20 09:53:27;;;;;;;42.20;25.73;;;;;;;;;;5070592;28;20106;-69
2022/01/20 09:55:53;;;;;;;44.70;24.17;;;;;;;;;;5071421;28;20040;-69
2022/01/20 09:58:19;;;;;;;41.03;24.13;;;;;;;;;;5085082;28;20034;-68
2022/01/20 10:00:46;;;;;;;46.38;22.63;;;;;;;;;;5093254;28;20020;-69
2022/01/20 10:03:14;;;;;;;35.38;19.73;;;;;;;;;;5091123;28;20380;-69
2022/01/20 10:05:45;;;;;;;29.20;17.67;;;;;;;;;;5090901;28;20078;-67
2022/01/20 10:08:17;;;;;;;28.50;18.45;;;;;;;;;;5091558;28;20051;-68
2022/01/20 10:10:51;;;;;;;22.80;14.70;;;;;;;;;;5093738;28;20028;-68
2022/01/20 10:13:22;;;;;;;22.73;15.18;;;;;;;;;;5093561;28;20047;-69
2022/01/20 10:16:14;;;;;;;29.13;18.02;;;;;;;;;;5096226;28;20073;-70
2022/01/20 10:18:57;;;;;;;25.98;16.75;;;;;;;;;;5109522;27;20036;-69
2022/01/20 10:21:33;;;;;;;32.28;16.08;;;;;;;;;;5113622;28;20024;-69
2022/01/20 10:24:25;;;;;;;37.83;19.80;;;;;;;;;;5113421;28;20572;-70
2022/01/20 10:26:51;;;;;;;21.63;12.95;;;;;;;;;;5110780;28;20148;-70
2022/01/20 10:29:18;;;;;;;22.92;11.75;;;;;;;;;;5113618;28;20023;-67
2022/01/20 10:31:44;;;;;;;20.60;11.02;;;;;;;;;;5112914;28;20026;-68
2022/01/20 10:34:22;;;;;;;29.33;15.60;;;;;;;;;;5113062;28;20033;-68
2022/01/20 10:36:54;;;;;;;18.88;10.98;;;;;;;;;;5114078;28;20023;-68
2022/01/20 10:39:29;;;;;;;27.40;13.30;;;;;;;;;;5114153;28;20032;-69
2022/01/20 10:42:04;;;;;;;36.58;18.52;;;;;;;;;;5113696;28;20024;-67
2022/01/20 10:44:40;;;;;;;33.45;18.25;;;;;;;;;;5113848;28;20494;-69
2022/01/20 10:47:11;;;;;;;22.00;10.65;;;;;;;;;;5113969;28;20468;-69
2022/01/20 10:49:37;;;;;;;20.33;12.20;;;;;;;;;;5113490;28;20023;-69
2022/01/20 10:52:05;;;;;;;29.00;16.15;;;;;;;;;;5112464;28;20111;-71
2022/01/20 10:54:48;;;;;;;18.48;9.95;;;;;;;;;;5113737;28;20114;-69
2022/01/20 10:57:17;;;;;;;14.27;7.75;;;;;;;;;;5113291;28;20027;-70
2022/01/20 10:59:51;;;;;;;15.18;7.50;;;;;;;;;;5113664;28;20491;-70
2022/01/20 11:02:22;;;;;;;17.17;6.90;;;;;;;;;;5113214;28;20027;-70
2022/01/20 11:04:49;;;;;;;18.77;11.52;;;;;;;;;;5113271;28;20016;-69
2022/01/20 11:07:15;;;;;;;19.65;10.38;;;;;;;;;;5113602;28;20066;-69
2022/01/20 11:09:44;;;;;;;15.77;10.43;;;;;;;;;;5113102;28;20026;-70
2022/01/20 11:12:14;;;;;;;29.92;18.42;;;;;;;;;;5112042;28;20030;-70
2022/01/20 11:14:41;;;;;;;38.80;20.23;;;;;;;;;;5113083;28;20048;-68
2022/01/20 11:24:35;;;;;;;35.60;15.30;;;;;;;;;;5110457;27;20121;-70
2022/01/20 11:27:01;;;;;;;16.67;8.80;;;;;;;;;;5090414;28;20496;-70
2022/01/20 11:29:45;;;;;;;14.50;6.78;;;;;;;;;;5090733;28;20035;-70
2022/01/20 11:35:06;;;;;;;13.38;6.15;;;;;;;;;;5073913;27;1671164;-70
2022/01/20 11:37:38;;;;;;;15.45;7.07;;;;;;;;;;5110751;28;20059;-70
2022/01/20 11:40:17;;;;;;;10.75;6.15;;;;;;;;;;5110701;28;20460;-69
2022/01/20 11:44:55;;;;;;;12.93;5.97;;;;;;;;;;5110240;27;20394;-70
2022/01/20 11:48:53;;;;;;;15.95;7.97;;;;;;;;;;5110645;27;20876;-70
2022/01/20 11:51:20;;;;;;;11.50;5.95;;;;;;;;;;5110521;28;20115;-69
2022/01/20 11:54:00;;;;;;;11.93;6.57;;;;;;;;;;5110948;28;20024;-70
2022/01/20 11:56:40;;;;;;;19.73;7.75;;;;;;;;;;5110658;28;20073;-69
2022/01/20 11:59:08;;;;;;;11.40;6.03;;;;;;;;;;5108635;28;20074;-69
2022/01/20 12:02:01;;;;;;;9.98;5.25;;;;;;;;;;5109594;27;20396;-69
2022/01/20 12:09:31;;;;;;;16.10;5.90;;;;;;;;;;5110493;27;20426;-69
2022/01/20 12:11:57;;;;;;;19.65;9.77;;;;;;;;;;5110651;28;20020;-70
2022/01/20 12:14:35;;;;;;;15.45;8.10;;;;;;;;;;5110368;28;20073;-70
2022/01/20 12:17:50;;;;;;;18.42;9.38;;;;;;;;;;5111196;27;20400;-72
2022/01/20 12:20:16;;;;;;;16.90;7.60;;;;;;;;;;5109757;28;20468;-69
2022/01/20 12:22:43;;;;;;;15.75;7.60;;;;;;;;;;5110984;28;20448;-71
2022/01/20 12:25:15;;;;;;;11.95;6.18;;;;;;;;;;5109804;28;20020;-68
2022/01/20 12:27:42;;;;;;;14.52;7.75;;;;;;;;;;5109550;28;20515;-69
2022/01/20 12:34:39;;;;;;;15.52;7.22;;;;;;;;;;5111100;27;20397;-72
2022/01/20 12:37:05;;;;;;;19.45;9.45;;;;;;;;;;5111129;28;20031;-72
2022/01/20 12:41:38;;;;;;;176.05;77.10;;;;;;;;;;5108543;27;20888;-71
2022/01/20 12:44:06;;;;;;;28.42;13.10;;;;;;;;;;5109121;28;20069;-71
2022/01/20 12:46:33;;;;;;;26.63;12.38;;;;;;;;;;5109028;28;20544;-72
2022/01/20 12:49:04;;;;;;;19.02;7.82;;;;;;;;;;5108702;28;20038;-71
2022/01/20 12:51:35;;;;;;;20.30;13.02;;;;;;;;;;5109315;28;20410;-71
2022/01/20 12:55:09;;;;;;;21.23;10.35;;;;;;;;;;5109128;27;20430;-71
2022/01/20 12:57:35;;;;;;;17.70;9.73;;;;;;;;;;5111186;28;20028;-71
2022/01/20 13:02:23;;;;;;;15.95;5.63;;;;;;;;;;5111270;27;20396;-72
2022/01/20 13:04:55;;;;;;;12.55;6.47;;;;;;;;;;5111312;28;20591;-73
2022/01/20 13:07:22;;;;;;;10.85;4.97;;;;;;;;;;5111900;28;20020;-72
2022/01/20 13:10:35;;;;;;;17.05;8.68;;;;;;;;;;5110970;27;20470;-72
2022/01/20 13:13:40;;;;;;;15.23;7.15;;;;;;;;;;5111307;27;20395;-71
2022/01/20 13:16:10;;;;;;;13.65;8.10;;;;;;;;;;5110783;28;20032;-71
2022/01/20 13:18:36;;;;;;;20.23;9.60;;;;;;;;;;5111105;28;20077;-71
2022/01/20 13:21:05;;;;;;;12.45;6.22;;;;;;;;;;5111178;28;20056;-71
2022/01/20 13:24:30;;;;;;;12.52;6.28;;;;;;;;;;5111037;27;20494;-71
2022/01/20 13:28:20;;;;;;;11.68;6.70;;;;;;;;;;5112036;27;20393;-70
2022/01/20 13:30:47;;;;;;;12.70;7.18;;;;;;;;;;5110833;28;20023;-71
2022/01/20 13:33:18;;;;;;;9.88;4.80;;;;;;;;;;5111297;28;20028;-71
2022/01/20 13:40:09;;;;;;;16.02;7.82;;;;;;;;;;5111334;27;20425;-73
2022/01/20 13:45:00;;;;;;;17.52;8.70;;;;;;;;;;5111412;28;20035;-72
2022/01/20 13:48:09;;;;;;;16.73;8.27;;;;;;;;;;5111699;27;20458;-72
2022/01/20 13:50:47;;;;;;;17.92;10.60;;;;;;;;;;5111227;28;20024;-71
2022/01/20 13:53:14;;;;;;;22.50;12.55;;;;;;;;;;5111252;28;20020;-73
2022/01/20 13:55:43;;;;;;;21.70;11.60;;;;;;;;;;5111326;28;20476;-73
2022/01/20 14:00:47;;;;;;;13.63;8.93;;;;;;;;;;5111566;27;20426;-72
2022/01/20 14:03:47;;;;;;;14.45;6.85;;;;;;;;;;5111460;27;20465;-72
2022/01/20 14:06:13;;;;;;;28.23;13.38;;;;;;;;;;5110900;28;20028;-72
2022/01/20 14:08:39;;;;;;;13.02;6.65;;;;;;;;;;5111183;28;20095;-72
2022/01/20 14:11:05;;;;;;;10.85;4.05;;;;;;;;;;5111088;28;20020;-72
2022/01/20 14:13:32;;;;;;;9.05;4.90;;;;;;;;;;5110741;28;20020;-73
2022/01/20 14:17:05;;;;;;;11.13;5.70;;;;;;;;;;5111918;27;20450;-72
2022/01/20 14:21:33;;;;;;;19.15;11.70;;;;;;;;;;5111635;27;20899;-73
2022/01/20 14:24:51;;;;;;;31.10;16.88;;;;;;;;;;5111477;27;20446;-72
2022/01/20 14:27:19;;;;;;;29.33;16.88;;;;;;;;;;5110787;28;20035;-71
2022/01/20 14:30:08;;;;;;;41.80;23.40;;;;;;;;;;5111787;27;20517;-71
2022/01/20 14:32:34;;;;;;;30.10;17.83;;;;;;;;;;5111304;28;20031;-72
2022/01/20 14:35:01;;;;;;;24.63;13.48;;;;;;;;;;5110810;28;20024;-72
2022/01/20 14:37:27;;;;;;;25.55;12.77;;;;;;;;;;5111194;28;20031;-72
2022/01/20 14:39:53;;;;;;;27.63;14.70;;;;;;;;;;5110655;28;20020;-73
2022/01/20 14:43:44;;;;;;;30.05;15.65;;;;;;;;;;5111915;27;20710;-73
2022/01/20 14:48:45;;;;;;;48.88;27.27;;;;;;;;;;5131362;27;20309;-72
2022/01/20 14:51:26;;;;;;;52.65;34.60;;;;;;;;;;5111679;27;20396;-73
2022/01/20 14:53:52;;;;;;;54.75;30.80;;;;;;;;;;5110926;28;20111;-73
2022/01/20 14:56:49;;;;;;;38.40;23.17;;;;;;;;;;5071245;28;20408;-73
2022/01/20 14:59:15;;;;;;;30.88;17.48;;;;;;;;;;5070658;28;20032;-73
2022/01/20 15:01:42;;;;;;;30.30;18.60;;;;;;;;;;5069045;28;20021;-72
2022/01/20 15:05:09;;;;;;;33.22;19.42;;;;;;;;;;5071531;28;20475;-72
2022/01/20 15:07:36;;;;;;;57.80;33.63;;;;;;;;;;5070668;28;20104;-72
2022/01/20 15:10:02;;;;;;;96.90;53.50;;;;;;;;;;5070165;28;20029;-71
2022/01/20 15:12:44;;;;;;;111.25;57.35;;;;;;;;;;5111631;27;20389;-71
2022/01/20 15:15:30;;;;;;;122.40;61.55;;;;;;;;;;5111298;27;20385;-71
2022/01/20 15:17:57;;;;;;;86.38;45.47;;;;;;;;;;5111256;28;20020;-71
2022/01/20 15:26:38;;;;;;;;;;;;;;;;;;5112260;27;20433;-71
2022/01/20 15:29:04;;;;;;;;;;;;;;;;;;5111282;28;19908;-70
2022/01/20 15:31:35;;;;;;;;;;;;;;;;;;5111622;28;19908;-70
2022/01/20 15:34:01;;;;;;;;;;;;;;;;;;5112137;28;19930;-70
2022/01/20 15:36:27;;;;;;;;;;;;;;;;;;5111308;28;19908;-71
2022/01/20 15:38:53;;;;;;;;;;;;;;;;;;5111686;28;19911;-70
2022/01/20 15:41:19;;;;;;;;;;;;;;;;;;5111746;28;19908;-71
2022/01/20 15:43:46;;;;;;;;;;;;;;;;;;5111259;28;20281;-72
2022/01/20 15:46:12;;;;;;;;;;;;;;;;;;5111448;28;19919;-72
2022/01/20 15:48:38;;;;;;;;;;;;;;;;;;5111386;28;19904;-71
2022/01/20 15:51:04;;;;;;;;;;;;;;;;;;5111207;28;19977;-71
2022/01/20 15:53:30;;;;;;;;;;;;;;;;;;5111433;28;19915;-72
2022/01/20 15:55:56;;;;;;;;;;;;;;;;;;5111266;28;19910;-72
2022/01/20 15:58:22;;;;;;;;;;;;;;;;;;5110762;28;19904;-70
2022/01/20 16:00:48;;;;;;;;;;;;;;;;;;5111067;28;19943;-70
2022/01/20 16:03:14;;;;;;;;;;;;;;;;;;5110988;28;19908;-70
2022/01/20 16:05:40;;;;;;;;;;;;;;;;;;5110797;28;19919;-71
2022/01/20 16:08:07;;;;;;;;;;;;;;;;;;5111015;28;19949;-71
2022/01/20 16:10:33;;;;;;;;;;;;;;;;;;5111008;28;19911;-70
2022/01/20 16:12:59;;;;;;;;;;;;;;;;;;5109208;28;20228;-70
2022/01/20 16:15:25;;;;;;;;;;;;;;;;;;5110929;28;19904;-71
2022/01/20 16:17:51;;;;;;;;;;;;;;;;;;5110999;28;19904;-70
2022/01/20 16:20:17;;;;;;;;;;;;;;;;;;5110317;28;19927;-71
2022/01/20 16:22:43;;;;;;;;;;;;;;;;;;5110751;28;20355;-72
2022/01/20 16:25:09;;;;;;;;;;;;;;;;;;5110507;28;19927;-71
2022/01/20 16:27:35;;;;;;;;;;;;;;;;;;5110244;28;19911;-71
2022/01/20 16:30:01;;;;;;;;;;;;;;;;;;5109315;28;19904;-71
2022/01/20 16:32:27;;;;;;;;;;;;;;;;;;5110417;28;19911;-71
2022/01/20 16:34:53;;;;;;;;;;;;;;;;;;5110481;28;19904;-71
2022/01/20 16:37:19;;;;;;;;;;;;;;;;;;5100492;28;19908;-71
2022/01/20 16:39:45;;;;;;;;;;;;;;;;;;5095204;28;19987;-70